createdAt,value
2019-02-12T00:00:39.069Z,98340.03
2019-02-12T00:03:45.720Z,98356.67
2019-02-12T00:06:52.213Z,98357.69
2019-02-12T00:09:59.810Z,98360.78
2019-02-12T00:13:06.573Z,98360.78
2019-02-12T00:16:13.300Z,98365.06
2019-02-12T00:19:19.881Z,98373.56
2019-02-12T00:22:26.955Z,98372.69
2019-02-12T00:25:33.424Z,98387.31
2019-02-12T00:28:40.170Z,98378.62
2019-02-12T00:31:47.832Z,98353.84
2019-02-12T00:34:54.725Z,98369.02
2019-02-12T00:38:01.595Z,98371.61
2019-02-12T00:41:08.665Z,98372.83
2019-02-12T00:44:15.190Z,98366.11
2019-02-12T00:47:22.103Z,98364.55
2019-02-12T00:50:29.069Z,98361.20
2019-02-12T00:53:36.416Z,98366.28
2019-02-12T00:56:43.027Z,98366.02
2019-02-12T00:59:49.448Z,98372.15
2019-02-12T01:02:56.340Z,98383.49
2019-02-12T01:06:02.545Z,98382.82
2019-02-12T01:09:09.432Z,98381.23
2019-02-12T01:12:16.661Z,98395.28
2019-02-12T01:15:23.139Z,98392.33
2019-02-12T01:18:29.573Z,98384.70
2019-02-12T01:21:36.991Z,98394.61
2019-02-12T01:24:43.486Z,98399.37
2019-02-12T01:27:50.298Z,98408.92
2019-02-12T01:30:57.009Z,98408.55
2019-02-12T01:34:03.466Z,98415.31
2019-02-12T01:37:09.698Z,98415.91
2019-02-12T01:40:15.955Z,98415.37
2019-02-12T01:43:22.257Z,98416.22
2019-02-12T01:46:29.227Z,98412.02
2019-02-12T01:49:35.614Z,98406.53
2019-02-12T01:52:42.014Z,98404.55
2019-02-12T01:55:48.665Z,98411.41
2019-02-12T01:58:54.904Z,98410.27
2019-02-12T02:02:01.476Z,98411.57
2019-02-12T02:05:08.871Z,98418.06
2019-02-12T02:08:15.551Z,98427.56
2019-02-12T02:11:22.292Z,98434.93
2019-02-12T02:14:28.922Z,98415.66
2019-02-12T02:17:35.432Z,98419.90
2019-02-12T02:20:42.020Z,98418.09
2019-02-12T02:23:48.449Z,98432.88
2019-02-12T02:26:54.867Z,98437.21
2019-02-12T02:30:02.032Z,98434.95
2019-02-12T02:33:08.617Z,98440.09
2019-02-12T02:36:15.019Z,98432.38
2019-02-12T02:39:21.328Z,98432.55
2019-02-12T02:42:27.913Z,98425.88
2019-02-12T02:45:35.030Z,98427.31
2019-02-12T02:48:41.510Z,98426.86
2019-02-12T02:51:53.952Z,98430.55
2019-02-12T02:54:57.193Z,98427.66
2019-02-12T02:58:04.857Z,98432.19
2019-02-12T03:01:11.607Z,98436.77
2019-02-12T03:04:18.253Z,98445.45
2019-02-12T03:07:25.008Z,98436.23
2019-02-12T03:10:31.631Z,98441.13
2019-02-12T03:13:40.277Z,98459.15
2019-02-12T03:16:47.042Z,98454.27
2019-02-12T03:19:53.338Z,98465.89
2019-02-12T03:23:00.187Z,98482.41
2019-02-12T03:26:07.142Z,98476.73
2019-02-12T03:29:14.452Z,98477.20
2019-02-12T03:32:20.967Z,98468.22
2019-02-12T03:35:27.516Z,98471.11
2019-02-12T03:38:33.872Z,98474.14
2019-02-12T03:41:39.997Z,98490.09
2019-02-12T03:44:46.256Z,98501.88
2019-02-12T03:47:52.507Z,98499.74
2019-02-12T03:51:00.447Z,98503.73
2019-02-12T03:54:07.112Z,98503.05
2019-02-12T03:57:13.583Z,98513.78
2019-02-12T04:00:20.029Z,98521.47
2019-02-12T04:03:26.232Z,98525.14
2019-02-12T04:06:32.550Z,98522.50
2019-02-12T04:09:38.913Z,98520.92
2019-02-12T04:12:46.435Z,98517.37
2019-02-12T04:15:54.622Z,98512.08
2019-02-12T04:19:01.707Z,98513.45
2019-02-12T04:22:08.589Z,98517.28
2019-02-12T04:25:15.078Z,98525.19
2019-02-12T04:28:22.771Z,98522.28
2019-02-12T04:31:29.441Z,98524.27
2019-02-12T04:34:36.195Z,98516.14
2019-02-12T04:37:42.841Z,98521.86
2019-02-12T04:40:49.337Z,98505.62
2019-02-12T04:43:55.792Z,98510.16
2019-02-12T04:47:02.244Z,98506.52
2019-02-12T04:50:09.656Z,98499.01
2019-02-12T04:53:16.183Z,98509.48
2019-02-12T04:56:22.751Z,98506.03
2019-02-12T04:59:29.373Z,98495.48
2019-02-12T05:02:35.848Z,98499.73
2019-02-12T05:05:42.156Z,98494.90
2019-02-12T05:09:11.736Z,98496.51
2019-02-12T05:12:19.967Z,98496.84
2019-02-12T05:15:26.346Z,98491.24
2019-02-12T05:18:33.264Z,98482.65
2019-02-12T05:21:40.318Z,98485.26
2019-02-12T05:24:46.938Z,98481.75
2019-02-12T05:27:53.296Z,98483.90
2019-02-12T05:30:59.678Z,98490.92
2019-02-12T05:34:07.263Z,98491.17
2019-02-12T05:37:13.461Z,98494.30
2019-02-12T05:40:20.070Z,98492.50
2019-02-12T05:43:26.565Z,98499.13
2019-02-12T05:46:33.433Z,98490.72
2019-02-12T05:49:40.157Z,98493.66
2019-02-12T05:52:53.812Z,98496.44
2019-02-12T05:55:54.743Z,98498.74
2019-02-12T05:59:01.040Z,98505.27
2019-02-12T06:02:07.691Z,98501.01
2019-02-12T06:05:26.353Z,98519.27
2019-02-12T06:08:33.743Z,98525.56
2019-02-12T06:11:41.071Z,98529.25
2019-02-12T06:14:47.555Z,98516.90
2019-02-12T06:17:54.693Z,98530.73
2019-02-12T06:21:01.268Z,98534.77
2019-02-12T06:24:07.940Z,98528.70
2019-02-12T06:27:14.409Z,98530.33
2019-02-12T06:30:21.333Z,98527.59
2019-02-12T06:33:28.394Z,98537.75
2019-02-12T06:36:35.529Z,98538.86
2019-02-12T06:39:42.163Z,98544.34
2019-02-12T06:42:49.028Z,98550.95
2019-02-12T06:45:56.038Z,98556.28
2019-02-12T06:49:02.851Z,98567.16
2019-02-12T06:52:09.675Z,98569.77
2019-02-12T06:55:16.057Z,98570.83
2019-02-12T06:58:22.791Z,98578.27
2019-02-12T07:01:29.028Z,98578.02
2019-02-12T07:04:35.803Z,98578.74
2019-02-12T07:08:34.880Z,98585.79
2019-02-12T07:12:20.760Z,98587.18
2019-02-12T07:15:38.357Z,98597.05
2019-02-12T07:19:26.067Z,98599.02
2019-02-12T07:23:11.417Z,98598.23
2019-02-12T07:26:46.853Z,98605.76
2019-02-12T07:30:27.375Z,98607.01
2019-02-12T07:34:15.166Z,98606.63
2019-02-12T07:38:14.922Z,98608.62
2019-02-12T07:41:37.954Z,98614.53
2019-02-12T07:45:33.711Z,98628.44
2019-02-12T07:48:59.268Z,98630.28
2019-02-12T07:52:43.792Z,98633.05
2019-02-12T07:56:37.893Z,98637.26
2019-02-12T08:00:32.625Z,98642.64
2019-02-12T08:04:03.938Z,98648.47
2019-02-12T08:07:50.432Z,98642.72
2019-02-12T08:11:27.064Z,98647.56
2019-02-12T08:14:44.678Z,98648.23
2019-02-12T08:18:31.564Z,98654.25
2019-02-12T08:22:26.777Z,98649.09
2019-02-12T08:26:05.250Z,98658.36
2019-02-12T08:30:04.704Z,98660.69
2019-02-12T08:33:33.066Z,98674.36
2019-02-12T08:37:26.108Z,98681.14
2019-02-12T08:41:16.420Z,98674.59
2019-02-12T08:44:39.415Z,98683.25
2019-02-12T08:48:11.297Z,98686.58
2019-02-12T08:51:57.735Z,98690.34
2019-02-12T08:55:30.689Z,98692.70
2019-02-12T08:59:03.588Z,98703.23
2019-02-12T09:03:10.032Z,98702.48
2019-02-12T09:06:44.628Z,98703.88
2019-02-12T09:10:26.728Z,98721.20
2019-02-12T09:13:52.790Z,98725.20
2019-02-12T09:17:42.252Z,98731.66
2019-02-12T09:21:05.296Z,98741.94
2019-02-12T09:25:20.524Z,98741.66
2019-02-12T09:28:58.215Z,98747.93
2019-02-12T09:32:42.569Z,98740.92
2019-02-12T09:36:22.021Z,98748.98
2019-02-12T09:40:19.070Z,98745.53
2019-02-12T09:44:07.913Z,98749.61
2019-02-12T09:48:00.366Z,98743.34
2019-02-12T09:51:50.580Z,98744.41
2019-02-12T09:55:23.406Z,98746.61
2019-02-12T09:58:55.277Z,98750.59
2019-02-12T10:02:35.451Z,98760.72
2019-02-12T10:06:22.856Z,98760.30
2019-02-12T10:09:47.091Z,98780.56
2019-02-12T10:13:41.373Z,98776.98
2019-02-12T10:17:10.883Z,98783.55
2019-02-12T10:20:49.565Z,98782.84
2019-02-12T10:24:46.890Z,98790.72
2019-02-12T10:28:30.518Z,98786.59
2019-02-12T10:31:45.254Z,98793.50
2019-02-12T10:34:51.975Z,98790.69
2019-02-12T10:37:58.464Z,98791.59
2019-02-12T10:41:05.313Z,98786.39
2019-02-12T10:44:12.068Z,98779.20
2019-02-12T10:47:19.246Z,98787.69
2019-02-12T10:50:26.254Z,98786.53
2019-02-12T10:53:32.699Z,98794.71
2019-02-12T10:56:40.159Z,98792.64
2019-02-12T10:59:48.473Z,98798.13
2019-02-12T11:02:55.261Z,98809.34
2019-02-12T11:06:03.148Z,98807.97
2019-02-12T11:09:11.170Z,98821.95
2019-02-12T11:12:18.040Z,98819.16
2019-02-12T11:15:24.770Z,98820.25
2019-02-12T11:18:31.451Z,98819.95
2019-02-12T11:21:38.614Z,98816.27
2019-02-12T11:24:45.317Z,98820.85
2019-02-12T11:27:51.827Z,98816.80
2019-02-12T11:30:58.131Z,98816.68
2019-02-12T11:34:04.767Z,98821.64
2019-02-12T11:37:11.647Z,98824.88
2019-02-12T11:40:18.448Z,98825.22
2019-02-12T11:43:26.419Z,98810.52
2019-02-12T11:46:34.580Z,98823.47
2019-02-12T11:49:41.813Z,98818.39
2019-02-12T11:52:48.979Z,98823.18
2019-02-12T11:55:55.696Z,98815.20
2019-02-12T11:59:03.075Z,98817.34
2019-02-12T12:02:09.514Z,98806.75
2019-02-12T12:05:16.414Z,98812.89
2019-02-12T12:08:23.617Z,98819.59
2019-02-12T12:11:30.204Z,98820.78
2019-02-12T12:14:37.207Z,98821.55
2019-02-12T12:17:44.013Z,98824.74
2019-02-12T12:20:50.460Z,98823.86
2019-02-12T12:23:57.561Z,98816.62
2019-02-12T12:27:04.076Z,98824.36
2019-02-12T12:30:11.101Z,98826.65
2019-02-12T12:33:17.937Z,98828.88
2019-02-12T12:36:24.856Z,98830.30
2019-02-12T12:39:32.063Z,98836.03
2019-02-12T12:42:38.641Z,98843.33
2019-02-12T12:45:45.161Z,98844.00
2019-02-12T12:48:51.781Z,98847.72
2019-02-12T12:51:59.017Z,98853.75
2019-02-12T12:55:05.867Z,98848.23
2019-02-12T12:58:13.504Z,98860.77
2019-02-12T13:01:19.808Z,98852.80
2019-02-12T13:04:26.510Z,98854.00
2019-02-12T13:07:33.180Z,98843.23
2019-02-12T13:10:41.390Z,98842.33
2019-02-12T13:13:48.092Z,98849.73
2019-02-12T13:16:55.535Z,98848.88
2019-02-12T13:20:02.191Z,98840.72
2019-02-12T13:23:09.034Z,98837.80
2019-02-12T13:26:15.867Z,98838.85
2019-02-12T13:29:22.722Z,98839.64
2019-02-12T13:32:30.160Z,98836.70
2019-02-12T13:35:36.617Z,98835.05
2019-02-12T13:38:43.476Z,98845.78
2019-02-12T13:41:50.117Z,98839.83
2019-02-12T13:44:56.675Z,98838.88
2019-02-12T13:48:03.531Z,98836.61
2019-02-12T13:51:10.854Z,98837.45
2019-02-12T13:54:17.421Z,98841.51
2019-02-12T13:57:23.790Z,98841.64
2019-02-12T14:00:33.348Z,98839.57
2019-02-12T14:03:40.207Z,98845.70
2019-02-12T14:06:46.828Z,98847.66
2019-02-12T14:09:53.426Z,98845.60
2019-02-12T14:13:00.425Z,98848.98
2019-02-12T14:16:06.877Z,98843.27
2019-02-12T14:19:13.867Z,98854.28
2019-02-12T14:22:20.679Z,98882.39
2019-02-12T14:25:27.658Z,98886.17
2019-02-12T14:28:36.108Z,98884.20
2019-02-12T14:31:52.565Z,98885.72
2019-02-12T14:34:52.490Z,98892.81
2019-02-12T14:37:59.359Z,98892.75
2019-02-12T14:41:06.013Z,98895.98
2019-02-12T14:44:12.822Z,98900.31
2019-02-12T14:47:19.580Z,98906.73
2019-02-12T14:50:27.874Z,98908.41
2019-02-12T14:53:35.069Z,98918.67
2019-02-12T14:56:42.024Z,98919.22
2019-02-12T14:59:48.709Z,98921.47
2019-02-12T15:02:55.891Z,98926.17
2019-02-12T15:06:02.384Z,98925.77
2019-02-12T15:09:09.507Z,98928.94
2019-02-12T15:12:16.879Z,98925.71
2019-02-12T15:15:24.056Z,98921.02
2019-02-12T15:18:30.906Z,98927.13
2019-02-12T15:21:39.204Z,98930.52
2019-02-12T15:24:46.557Z,98929.97
2019-02-12T15:27:53.290Z,98938.44
2019-02-12T15:31:00.285Z,98939.92
2019-02-12T15:34:07.266Z,98939.09
2019-02-12T15:37:13.979Z,98941.88
2019-02-12T15:40:22.918Z,98941.86
2019-02-12T15:43:31.105Z,98944.11
2019-02-12T15:46:38.685Z,98942.68
2019-02-12T15:49:45.150Z,98945.36
2019-02-12T15:52:51.690Z,98948.94
2019-02-12T15:55:58.769Z,98950.02
2019-02-12T15:59:05.254Z,98950.08
2019-02-12T16:02:13.600Z,98951.41
2019-02-12T16:05:20.149Z,98959.16
2019-02-12T16:08:28.556Z,98957.95
2019-02-12T16:11:35.571Z,98961.16
2019-02-12T16:14:42.674Z,98960.28
2019-02-12T16:17:50.282Z,98959.11
2019-02-12T16:20:57.383Z,98962.09
2019-02-12T16:24:04.349Z,98965.00
2019-02-12T16:27:11.197Z,98971.96
2019-02-12T16:30:18.063Z,98978.95
2019-02-12T16:33:24.804Z,98985.04
2019-02-12T16:36:32.050Z,98993.55
2019-02-12T16:39:40.420Z,98987.53
2019-02-12T16:42:47.781Z,98983.33
2019-02-12T16:45:58.770Z,98988.64
2019-02-12T16:49:06.677Z,99000.23
2019-02-12T16:52:20.716Z,99000.76
2019-02-12T16:55:23.169Z,98997.45
2019-02-12T16:58:29.657Z,98997.13
2019-02-12T17:01:39.950Z,98992.73
2019-02-12T17:04:46.199Z,99000.66
2019-02-12T17:07:53.066Z,99008.51
2019-02-12T17:10:59.706Z,99008.48
2019-02-12T17:14:06.573Z,99009.20
2019-02-12T17:17:13.476Z,99016.48
2019-02-12T17:20:20.107Z,99011.20
2019-02-12T17:23:28.510Z,99022.67
2019-02-12T17:26:36.414Z,99029.81
2019-02-12T17:29:42.935Z,99030.00
2019-02-12T17:32:49.359Z,99031.46
2019-02-12T17:35:56.453Z,99038.90
2019-02-12T17:39:04.809Z,99035.91
2019-02-12T17:42:11.771Z,99044.58
2019-02-12T17:45:19.116Z,99061.00
2019-02-12T17:48:26.135Z,99058.37
2019-02-12T17:51:33.477Z,99064.59
2019-02-12T17:54:45.548Z,99058.23
2019-02-12T17:57:52.312Z,99054.91
2019-02-12T18:00:59.194Z,99058.84
2019-02-12T18:04:06.275Z,99064.70
2019-02-12T18:07:12.794Z,99068.95
2019-02-12T18:10:25.646Z,99064.91
2019-02-12T18:13:33.241Z,99077.64
2019-02-12T18:16:40.955Z,99080.72
2019-02-12T18:19:48.171Z,99083.78
2019-02-12T18:22:54.868Z,99078.78
2019-02-12T18:26:02.142Z,99081.58
2019-02-12T18:29:15.054Z,99075.69
2019-02-12T18:32:43.911Z,99084.56
2019-02-12T18:36:02.989Z,99076.34
2019-02-12T18:39:15.269Z,99077.31
2019-02-12T18:42:30.322Z,99073.59
2019-02-12T18:45:37.448Z,99070.63
2019-02-12T18:48:44.170Z,99066.39
2019-02-12T18:51:51.140Z,99060.07
2019-02-12T18:54:58.126Z,99073.32
2019-02-12T18:58:06.449Z,99075.69
2019-02-12T19:01:14.360Z,99077.96
2019-02-12T19:04:22.792Z,99083.14
2019-02-12T19:07:31.014Z,99086.08
2019-02-12T19:10:38.210Z,99088.70
2019-02-12T19:13:45.274Z,99079.16
2019-02-12T19:16:52.005Z,99072.12
2019-02-12T19:19:59.606Z,99059.69
2019-02-12T19:23:11.339Z,99068.42
2019-02-12T19:26:18.349Z,99067.63
2019-02-12T19:29:28.014Z,99071.50
2019-02-12T19:32:36.643Z,99068.89
2019-02-12T19:35:44.603Z,99071.09
2019-02-12T19:38:51.923Z,99067.34
2019-02-12T19:42:09.643Z,99071.70
2019-02-12T19:45:19.832Z,99078.76
2019-02-12T19:48:29.932Z,99077.06
2019-02-12T19:51:40.258Z,99081.72
2019-02-12T19:54:48.013Z,99085.23
2019-02-12T19:57:56.066Z,99080.75
2019-02-12T20:01:03.517Z,99081.20
2019-02-12T20:04:12.069Z,99085.69
2019-02-12T20:07:21.505Z,99084.83
2019-02-12T20:10:28.173Z,99083.19
2019-02-12T20:13:36.221Z,99080.84
2019-02-12T20:16:44.237Z,99069.90
2019-02-12T20:19:54.359Z,99074.51
2019-02-12T20:23:03.397Z,99079.50
2019-02-12T20:26:10.177Z,99082.39
2019-02-12T20:29:18.336Z,99080.41
2019-02-12T20:32:25.351Z,99082.38
2019-02-12T20:35:36.482Z,99073.41
2019-02-12T20:38:43.720Z,99064.63
2019-02-12T20:41:52.741Z,99063.89
2019-02-12T20:45:01.285Z,99059.62
2019-02-12T20:48:10.027Z,99076.83
2019-02-12T20:51:16.949Z,99083.45
2019-02-12T20:54:23.629Z,99088.23
2019-02-12T20:57:30.559Z,99097.41
2019-02-12T21:00:38.755Z,99096.61
2019-02-12T21:03:45.775Z,99105.74
2019-02-12T21:06:52.239Z,99101.17
2019-02-12T21:09:59.159Z,99110.36
2019-02-12T21:13:06.275Z,99121.20
2019-02-12T21:16:13.259Z,99120.05
2019-02-12T21:19:20.184Z,99120.20
2019-02-12T21:22:27.349Z,99115.03
2019-02-12T21:25:34.288Z,99113.52
2019-02-12T21:28:42.171Z,99108.80
2019-02-12T21:31:49.048Z,99121.98
2019-02-12T21:34:55.523Z,99125.19
2019-02-12T21:38:06.870Z,99132.06
2019-02-12T21:41:13.434Z,99130.72
2019-02-12T21:44:20.024Z,99134.98
2019-02-12T21:47:26.687Z,99140.20
2019-02-12T21:50:33.477Z,99143.53
2019-02-12T21:53:39.743Z,99152.38
2019-02-12T21:56:46.288Z,99151.08
2019-02-12T21:59:53.055Z,99141.63
2019-02-12T22:03:00.126Z,99137.40
2019-02-12T22:06:09.018Z,99135.81
2019-02-12T22:09:15.666Z,99139.31
2019-02-12T22:12:26.105Z,99140.32
2019-02-12T22:15:33.344Z,99143.59
2019-02-12T22:18:40.366Z,99138.38
2019-02-12T22:21:46.790Z,99142.23
2019-02-12T22:24:54.535Z,99140.94
2019-02-12T22:28:01.122Z,99136.49
2019-02-12T22:31:10.100Z,99136.48
2019-02-12T22:34:16.689Z,99124.84
2019-02-12T22:37:23.401Z,99136.20
2019-02-12T22:40:30.383Z,99128.01
2019-02-12T22:43:36.989Z,99136.75
2019-02-12T22:46:43.681Z,99139.02
2019-02-12T22:49:50.761Z,99144.62
2019-02-12T22:52:57.606Z,99138.19
2019-02-12T22:56:04.373Z,99131.20
2019-02-12T22:59:11.031Z,99137.33
2019-02-12T23:02:17.330Z,99145.69
2019-02-12T23:05:24.164Z,99145.38
2019-02-12T23:08:31.145Z,99138.77
2019-02-12T23:11:38.524Z,99133.59
2019-02-12T23:14:45.617Z,99143.05
2019-02-12T23:17:52.587Z,99137.40
2019-02-12T23:20:59.088Z,99138.16
2019-02-12T23:24:05.547Z,99132.87
2019-02-12T23:27:12.605Z,99141.48
2019-02-12T23:30:19.019Z,99138.02
2019-02-12T23:33:25.640Z,99141.63
2019-02-12T23:36:32.068Z,99146.52
2019-02-12T23:39:39.013Z,99152.75
2019-02-12T23:42:46.010Z,99146.48
2019-02-12T23:45:52.405Z,99145.00
2019-02-12T23:48:59.170Z,99144.84
2019-02-12T23:52:05.860Z,99136.61
2019-02-12T23:55:12.196Z,99138.77
2019-02-12T23:58:19.701Z,99136.02
